TimeEDT,TemperatureF,Dew PointF,Humidity,Sea Level PressureIn,VisibilityMPH,Wind Direction,Wind SpeedMPH,Gust SpeedMPH,PrecipitationIn,Events,Conditions,WindDirDegrees,DateUTC
12:53 AM,53.1,41.0,64,30.28,10.0,North,4.6,-,N/A,,Clear,360,2011-10-06 04:53:00
1:53 AM,52.0,41.0,66,30.30,10.0,North,4.6,-,N/A,,Clear,360,2011-10-06 05:53:00
2:53 AM,48.9,39.9,71,30.30,10.0,North,4.6,-,N/A,,Clear,350,2011-10-06 06:53:00
3:53 AM,48.0,39.0,71,30.31,10.0,NNW,5.8,-,N/A,,Clear,340,2011-10-06 07:53:00
4:53 AM,48.0,39.0,71,30.32,10.0,North,8.1,-,N/A,,Clear,360,2011-10-06 08:53:00
5:53 AM,46.0,39.0,76,30.33,10.0,Calm,Calm,-,N/A,,Clear,0,2011-10-06 09:53:00
6:53 AM,44.1,39.9,85,30.34,10.0,NNW,5.8,-,N/A,,Clear,330,2011-10-06 10:53:00
7:53 AM,48.0,39.9,74,30.36,10.0,NNW,5.8,-,N/A,,Clear,330,2011-10-06 11:53:00
8:53 AM,53.1,42.1,66,30.37,10.0,NNW,4.6,-,N/A,,Clear,340,2011-10-06 12:53:00
9:53 AM,57.0,41.0,55,30.38,10.0,NNW,5.8,-,N/A,,Clear,330,2011-10-06 13:53:00
10:53 AM,60.8,37.4,42,30.39,10.0,NNW,4.6,-,N/A,,Clear,340,2011-10-06 14:53:00
11:53 AM,62.1,35.1,37,30.35,10.0,WNW,6.9,-,N/A,,Clear,300,2011-10-06 15:53:00
12:53 PM,64.9,34.0,32,30.33,10.0,WNW,9.2,-,N/A,,Clear,300,2011-10-06 16:53:00
1:53 PM,66.2,30.2,26,30.32,10.0,NW,8.1,-,N/A,,Clear,320,2011-10-06 17:53:00
2:53 PM,68.0,30.9,25,30.29,10.0,NNW,9.2,-,N/A,,Clear,330,2011-10-06 18:53:00
3:53 PM,68.0,32.0,26,30.28,10.0,NW,4.6,-,N/A,,Clear,320,2011-10-06 19:53:00
4:53 PM,68.0,33.8,28,30.29,10.0,NW,4.6,-,N/A,,Clear,320,2011-10-06 20:53:00
5:53 PM,64.9,36.0,34,30.27,10.0,West,4.6,-,N/A,,Clear,260,2011-10-06 21:53:00
6:53 PM,62.1,37.9,41,30.29,10.0,Calm,Calm,-,N/A,,Clear,0,2011-10-06 22:53:00
7:53 PM,60.1,37.9,44,30.30,10.0,West,3.5,-,N/A,,Clear,280,2011-10-06 23:53:00
8:53 PM,55.0,41.0,59,30.32,10.0,NW,3.5,-,N/A,,Clear,320,2011-10-07 00:53:00
9:53 PM,53.1,41.0,64,30.32,10.0,NNW,3.5,-,N/A,,Clear,330,2011-10-07 01:53:00
10:53 PM,51.1,41.0,68,30.33,10.0,NW,5.8,-,N/A,,Clear,320,2011-10-07 02:53:00
11:53 PM,51.1,41.0,68,30.33,10.0,NW,3.5,-,N/A,,Clear,320,2011-10-07 03:53:00